This is the latest recevied weather packets stored in our database for station/object KS4XQ. If no packets are shown the sender has not sent any weather packets the latest 10 day(s).
| Time | Temp. | Humidity | Pressure | Rain* | Wind** | Luminosity | Snow |
|---|---|---|---|---|---|---|---|
| 1777781700 | 7.78° C | 89% | 1016.4 hPa | 0 mm | - | - | - |
| 1777779302 | 8.33° C | 87% | 1015.9 hPa | 0 mm | - | - | - |
| 1777777802 | 8.89° C | 86% | 1015.6 hPa | 0 mm | - | - | - |
| 1777776302 | 9.44° C | 85% | 1015.5 hPa | 0 mm | - | - | - |
| 1777774502 | 10.56° C | 85% | 1015 hPa | 0 mm | - | - | - |
| 1777773606 | 11.11° C | 80% | 1014.8 hPa | 0 mm | - | - | - |
| 1777771802 | 11.67° C | 78% | 1014.3 hPa | 0 mm | - | - | - |
| 1777770902 | 12.22° C | 76% | 1014 hPa | 0 mm | - | - | - |
| 1777768502 | 13.89° C | 75% | 1012.9 hPa | 0 mm | - | - | - |
| 1777767902 | 13.89° C | 74% | 1012.8 hPa | 0 mm | - | - | - |
| 1777767302 | 14.44° C | 75% | 1012.7 hPa | 0 mm | - | - | - |
| 1777767002 | 14.44° C | 74% | 1012.7 hPa | 0 mm | - | - | - |
| 1777766102 | 15° C | 71% | 1012.3 hPa | 0 mm | - | - | - |
| 1777763702 | 15.56° C | 68% | 1012 hPa | 0 mm | - | - | - |
| 1777759802 | 17.22° C | 58% | 1011.5 hPa | 0 mm | - | - | - |
| 1777758303 | 17.22° C | 61% | 1011.4 hPa | 0 mm | - | - | - |
| 1777755902 | 17.22° C | 60% | 1011 hPa | 0 mm | - | - | - |
| 1777753502 | 16.67° C | 62% | 1011.2 hPa | 0 mm | - | - | - |
| 1777753203 | 16.67° C | 62% | 1011.4 hPa | 0 mm | - | - | - |
| 1777752302 | 17.22° C | 59% | 1011.4 hPa | 0 mm | - | - | - |
| 1777752006 | 17.22° C | 61% | 1011.5 hPa | 0 mm | - | - | - |
| 1777750502 | 18.89° C | 48% | 1011.3 hPa | 0 mm | - | - | - |
| 1777749904 | 19.44° C | 50% | 1011.5 hPa | 0 mm | - | - | - |
| 1777748704 | 20° C | 49% | 1011.8 hPa | 0 mm | - | - | - |
| 1777745401 | 18.33° C | 53% | 1012.2 hPa | 0 mm | - | - | - |
* Rain latest hour (hover to see other rain measurements)
** Current wind speed in m/s (hover to see current wind gust speed)